createdAt,value
2023-04-22T00:00:42.753Z,10.18
2023-04-22T00:03:10.496Z,10.45
2023-04-22T00:05:38.125Z,14.25
2023-04-22T00:08:05.902Z,11.73
2023-04-22T00:10:33.632Z,13.68
2023-04-22T00:13:01.019Z,13.98
2023-04-22T00:15:28.466Z,13.52
2023-04-22T00:17:56.166Z,14.87
2023-04-22T00:20:23.817Z,10.43
2023-04-22T00:22:51.274Z,14.13
2023-04-22T00:25:19.126Z,11.18
2023-04-22T00:27:46.550Z,12.00
2023-04-22T00:30:14.042Z,15.80
2023-04-22T00:32:41.720Z,13.38
2023-04-22T00:35:09.477Z,11.38
2023-04-22T00:37:36.826Z,12.35
2023-04-22T00:40:04.785Z,11.45
2023-04-22T00:42:32.136Z,19.87
2023-04-22T00:44:59.610Z,12.23
2023-04-22T00:47:27.956Z,13.98
2023-04-22T00:49:55.373Z,10.88
2023-04-22T00:52:22.725Z,11.20
2023-04-22T00:54:51.140Z,10.68
2023-04-22T00:57:18.580Z,11.07
2023-04-22T00:59:45.999Z,10.40
2023-04-22T01:02:14.124Z,11.63
2023-04-22T01:04:41.674Z,14.23
2023-04-22T01:07:09.044Z,11.68
2023-04-22T01:09:36.697Z,11.18
2023-04-22T01:12:04.041Z,13.43
2023-04-22T01:14:31.401Z,13.50
2023-04-22T01:16:59.193Z,17.75
2023-04-22T01:19:26.579Z,15.02
2023-04-22T01:21:53.954Z,14.32
2023-04-22T01:24:21.939Z,16.98
2023-04-22T01:26:49.298Z,20.17
2023-04-22T01:29:16.671Z,16.33
2023-04-22T01:31:44.343Z,13.68
2023-04-22T01:34:11.869Z,16.80
2023-04-22T01:36:39.347Z,18.33
2023-04-22T01:39:08.360Z,12.35
2023-04-22T01:41:35.837Z,11.20
2023-04-22T01:44:03.463Z,17.33
2023-04-22T01:46:31.218Z,13.32
2023-04-22T01:48:58.616Z,11.52
2023-04-22T01:51:26.036Z,11.00
2023-04-22T01:53:53.674Z,11.68
2023-04-22T01:56:24.371Z,11.55
2023-04-22T01:58:51.740Z,13.30
2023-04-22T02:01:19.886Z,12.52
2023-04-22T02:03:47.639Z,9.95
2023-04-22T02:06:15.152Z,10.60
2023-04-22T02:08:42.534Z,11.98
2023-04-22T02:11:10.222Z,13.30
2023-04-22T02:13:38.242Z,11.73
2023-04-22T02:16:06.059Z,14.68
2023-04-22T02:18:33.820Z,12.20
2023-04-22T02:21:01.194Z,12.68
2023-04-22T02:23:28.551Z,18.55
2023-04-22T02:25:56.273Z,13.32
2023-04-22T02:28:23.664Z,15.82
2023-04-22T02:30:51.375Z,13.50
2023-04-22T02:33:19.064Z,12.85
2023-04-22T02:35:46.524Z,11.80
2023-04-22T02:38:16.310Z,11.30
2023-04-22T02:40:43.974Z,15.57
2023-04-22T02:43:12.021Z,11.98
2023-04-22T02:45:40.783Z,13.57
2023-04-22T02:48:08.762Z,11.20
2023-04-22T02:50:36.594Z,14.15
2023-04-22T02:53:04.033Z,11.82
2023-04-22T02:55:31.683Z,14.05
2023-04-22T02:57:59.084Z,12.25
2023-04-22T03:00:26.525Z,14.45
2023-04-22T03:02:54.466Z,11.55
2023-04-22T03:05:22.404Z,11.55
2023-04-22T03:07:50.385Z,11.85
2023-04-22T03:10:18.086Z,14.00
2023-04-22T03:12:45.512Z,10.70
2023-04-22T03:15:13.018Z,12.18
2023-04-22T03:17:40.714Z,10.65
2023-04-22T03:20:09.033Z,14.13
2023-04-22T03:22:36.532Z,12.37
2023-04-22T03:25:04.866Z,13.23
2023-04-22T03:27:32.470Z,13.85
2023-04-22T03:30:00.711Z,14.35
2023-04-22T03:32:28.592Z,15.00
2023-04-22T03:34:58.084Z,11.02
2023-04-22T03:37:25.909Z,11.90
2023-04-22T03:39:53.915Z,10.95
2023-04-22T03:42:21.800Z,13.38
2023-04-22T03:44:49.165Z,13.50
2023-04-22T03:47:17.838Z,13.80
2023-04-22T03:49:45.934Z,13.93
2023-04-22T03:52:13.458Z,13.82
2023-04-22T03:54:41.846Z,12.40
2023-04-22T03:57:09.207Z,11.48
2023-04-22T03:59:36.593Z,11.45
2023-04-22T04:02:04.283Z,17.02
2023-04-22T04:04:32.599Z,10.35
2023-04-22T04:07:00.840Z,12.45
2023-04-22T04:09:28.442Z,10.50
2023-04-22T04:11:56.842Z,10.32
2023-04-22T04:14:24.962Z,14.87
2023-04-22T04:16:52.567Z,11.77
2023-04-22T04:19:21.510Z,11.65
2023-04-22T04:21:49.288Z,11.15
2023-04-22T04:24:16.667Z,14.27
2023-04-22T04:26:44.517Z,11.73
2023-04-22T04:29:13.753Z,14.90
2023-04-22T04:31:41.724Z,13.52
2023-04-22T04:34:09.407Z,13.00
2023-04-22T04:36:39.949Z,10.68
2023-04-22T04:39:08.388Z,10.50
2023-04-22T04:41:36.180Z,12.50
2023-04-22T04:44:04.022Z,12.85
2023-04-22T04:46:32.443Z,12.75
2023-04-22T04:49:00.148Z,11.40
2023-04-22T04:51:28.318Z,12.70
2023-04-22T04:53:56.181Z,18.98
2023-04-22T04:56:24.279Z,13.60
2023-04-22T04:58:51.853Z,14.65
2023-04-22T05:01:19.690Z,13.98
2023-04-22T05:03:47.816Z,19.42
2023-04-22T05:06:15.627Z,12.68
2023-04-22T05:08:43.491Z,10.95
2023-04-22T05:11:11.275Z,9.57
2023-04-22T05:13:38.838Z,11.75
2023-04-22T05:16:07.072Z,12.20
2023-04-22T05:18:34.932Z,15.70
2023-04-22T05:21:04.552Z,11.05
2023-04-22T05:23:32.250Z,13.52
2023-04-22T05:26:00.218Z,10.52
2023-04-22T05:28:27.689Z,16.42
2023-04-22T05:30:55.261Z,11.95
2023-04-22T05:33:22.894Z,13.13
2023-04-22T05:35:51.550Z,14.93
2023-04-22T05:38:19.157Z,13.45
2023-04-22T05:40:46.839Z,19.40
2023-04-22T05:43:14.753Z,14.85
2023-04-22T05:45:42.858Z,19.08
2023-04-22T05:48:11.594Z,19.08
2023-04-22T05:50:39.198Z,17.67
2023-04-22T05:53:07.753Z,14.23
2023-04-22T05:55:35.451Z,18.62
2023-04-22T05:58:02.982Z,12.63
2023-04-22T06:00:30.602Z,12.25
2023-04-22T06:02:59.267Z,13.32
2023-04-22T06:05:26.924Z,16.52
2023-04-22T06:07:54.553Z,13.00
2023-04-22T06:10:22.258Z,14.82
2023-04-22T06:12:49.616Z,12.13
2023-04-22T06:15:17.163Z,14.93
2023-04-22T06:17:45.727Z,13.38
2023-04-22T06:20:13.642Z,12.20
2023-04-22T06:22:41.103Z,11.50
2023-04-22T06:25:09.506Z,12.75
2023-04-22T06:27:38.097Z,12.20
2023-04-22T06:30:06.556Z,12.05
2023-04-22T06:32:34.323Z,11.45
2023-04-22T06:35:01.714Z,12.95
2023-04-22T06:37:29.549Z,11.65
2023-04-22T06:39:57.437Z,13.73
2023-04-22T06:42:25.744Z,10.52
2023-04-22T06:44:58.978Z,11.00
2023-04-22T06:47:26.927Z,13.90
2023-04-22T06:49:54.507Z,12.85
2023-04-22T06:52:24.124Z,10.70
2023-04-22T06:54:52.591Z,13.30
2023-04-22T06:57:20.015Z,11.05
2023-04-22T06:59:47.414Z,11.88
2023-04-22T07:02:15.582Z,12.27
2023-04-22T07:04:44.434Z,11.77
2023-04-22T07:07:12.005Z,11.55
2023-04-22T07:09:41.101Z,10.75
2023-04-22T07:12:08.953Z,11.57
2023-04-22T07:14:37.263Z,12.63
2023-04-22T07:17:04.897Z,12.35
2023-04-22T07:19:33.295Z,11.57
2023-04-22T07:22:03.400Z,11.77
2023-04-22T07:24:31.027Z,11.63
2023-04-22T07:26:58.418Z,13.62
2023-04-22T07:29:25.833Z,12.60
2023-04-22T07:31:53.498Z,12.02
2023-04-22T07:34:21.252Z,11.52
2023-04-22T07:36:50.527Z,11.18
2023-04-22T07:39:18.210Z,12.70
2023-04-22T07:41:45.575Z,11.70
2023-04-22T07:44:16.515Z,11.90
2023-04-22T07:46:44.131Z,12.10
2023-04-22T07:49:14.069Z,12.05
2023-04-22T07:51:41.677Z,14.27
2023-04-22T07:54:09.304Z,12.25
2023-04-22T07:56:36.666Z,11.95
2023-04-22T07:59:04.111Z,11.35
2023-04-22T08:01:31.780Z,11.55
2023-04-22T08:03:59.721Z,11.30
2023-04-22T08:06:28.224Z,11.52
2023-04-22T08:08:55.620Z,11.32
2023-04-22T08:11:23.312Z,11.52
2023-04-22T08:13:50.690Z,13.70
2023-04-22T08:16:18.243Z,11.55
2023-04-22T08:18:45.969Z,10.73
2023-04-22T08:21:13.348Z,11.05
2023-04-22T08:23:40.685Z,11.27
2023-04-22T08:26:08.640Z,11.10
2023-04-22T08:28:36.036Z,12.30
2023-04-22T08:31:03.513Z,11.50
2023-04-22T08:33:31.248Z,11.15
2023-04-22T08:35:58.702Z,11.50
2023-04-22T08:38:26.174Z,11.18
2023-04-22T08:40:56.212Z,11.60
2023-04-22T08:43:23.686Z,12.20
2023-04-22T08:45:51.049Z,12.63
2023-04-22T08:48:19.334Z,10.85
2023-04-22T08:50:47.389Z,12.02
2023-04-22T08:53:14.773Z,12.05
2023-04-22T08:55:45.876Z,11.25
2023-04-22T08:58:13.280Z,12.13
2023-04-22T09:00:42.704Z,12.18
2023-04-22T09:03:10.730Z,11.75
2023-04-22T09:05:39.790Z,11.68
2023-04-22T09:08:07.973Z,11.45
2023-04-22T09:10:37.567Z,12.05
2023-04-22T09:13:07.387Z,12.65
2023-04-22T09:15:34.743Z,13.15
2023-04-22T09:18:03.378Z,12.95
2023-04-22T09:20:31.247Z,13.07
2023-04-22T09:23:03.127Z,12.88
2023-04-22T09:25:32.663Z,12.32
2023-04-22T09:28:00.011Z,12.00
2023-04-22T09:30:32.489Z,11.85
2023-04-22T09:33:01.511Z,12.80
2023-04-22T09:35:46.881Z,12.70
2023-04-22T09:38:14.694Z,13.43
2023-04-22T09:40:43.266Z,12.80
2023-04-22T09:43:10.815Z,13.88
2023-04-22T09:45:39.227Z,13.65
2023-04-22T09:48:11.163Z,15.77
2023-04-22T09:50:39.952Z,13.65
2023-04-22T09:53:08.444Z,13.75
2023-04-22T09:55:38.227Z,14.45
2023-04-22T09:58:13.227Z,13.43
2023-04-22T10:00:49.017Z,13.25
2023-04-22T10:03:16.804Z,13.45
2023-04-22T10:05:45.731Z,12.55
2023-04-22T10:08:13.841Z,13.15
2023-04-22T10:10:41.571Z,13.35
2023-04-22T10:13:09.041Z,13.18
2023-04-22T10:15:42.742Z,12.43
2023-04-22T10:18:12.341Z,12.95
2023-04-22T10:20:41.058Z,12.43
2023-04-22T10:23:14.465Z,12.77
2023-04-22T10:25:42.102Z,12.45
2023-04-22T10:28:10.662Z,12.48
2023-04-22T10:30:38.951Z,13.02
2023-04-22T10:33:21.802Z,12.85
2023-04-22T10:36:19.847Z,13.25
2023-04-22T10:38:50.249Z,18.80
2023-04-22T10:41:17.903Z,14.00
2023-04-22T10:43:46.715Z,14.55
2023-04-22T10:46:37.590Z,14.45
2023-04-22T10:49:08.194Z,14.30
2023-04-22T10:51:46.553Z,13.43
2023-04-22T10:54:31.880Z,14.40
2023-04-22T10:57:01.882Z,14.52
2023-04-22T10:59:29.592Z,15.82
2023-04-22T11:02:06.618Z,14.70
2023-04-22T11:04:34.514Z,15.07
2023-04-22T11:07:26.961Z,15.82
2023-04-22T11:10:07.118Z,14.82
2023-04-22T11:12:42.107Z,14.98
2023-04-22T11:15:13.402Z,14.63
2023-04-22T11:17:44.380Z,14.87
2023-04-22T11:20:12.906Z,17.15
2023-04-22T11:22:45.442Z,14.90
2023-04-22T11:25:13.264Z,14.30
2023-04-22T11:27:41.048Z,13.80
2023-04-22T11:30:27.098Z,14.05
2023-04-22T11:32:55.989Z,17.67
2023-04-22T11:35:27.522Z,14.25
2023-04-22T11:37:57.073Z,14.20
2023-04-22T11:40:31.242Z,14.63
2023-04-22T11:43:02.065Z,16.02
2023-04-22T11:45:30.604Z,15.50
2023-04-22T11:47:58.071Z,14.32
2023-04-22T11:50:28.660Z,14.95
2023-04-22T11:53:03.551Z,18.12
2023-04-22T11:55:31.779Z,15.40
2023-04-22T11:58:09.543Z,15.75
2023-04-22T12:00:47.587Z,15.18
2023-04-22T12:03:25.616Z,13.90
2023-04-22T12:05:54.393Z,15.88
2023-04-22T12:08:31.610Z,14.85
2023-04-22T12:11:00.623Z,14.57
2023-04-22T12:13:33.157Z,14.87
2023-04-22T12:16:01.746Z,14.98
2023-04-22T12:18:33.489Z,14.90
2023-04-22T12:21:10.737Z,14.52
2023-04-22T12:23:52.192Z,13.60
2023-04-22T12:26:23.742Z,15.85
2023-04-22T12:28:53.467Z,14.43
2023-04-22T12:31:21.248Z,13.90
2023-04-22T12:33:48.696Z,13.65
2023-04-22T12:36:17.572Z,13.98
2023-04-22T12:38:44.944Z,13.68
2023-04-22T12:41:12.482Z,13.20
2023-04-22T12:43:40.124Z,14.05
2023-04-22T12:46:08.053Z,13.55
2023-04-22T12:48:38.819Z,13.32
2023-04-22T12:51:06.868Z,12.88
2023-04-22T12:53:34.427Z,13.68
2023-04-22T12:56:01.820Z,13.80
2023-04-22T12:58:29.497Z,13.68
2023-04-22T13:00:56.878Z,14.80
2023-04-22T13:03:24.469Z,15.95
2023-04-22T13:05:52.562Z,14.77
2023-04-22T13:08:19.944Z,13.30
2023-04-22T13:10:48.270Z,12.60
2023-04-22T13:13:19.069Z,14.15
2023-04-22T13:15:47.703Z,12.60
2023-04-22T13:18:16.682Z,15.20
2023-04-22T13:20:44.137Z,12.73
2023-04-22T13:23:12.942Z,12.00
2023-04-22T13:25:40.669Z,14.87
2023-04-22T13:28:08.099Z,13.20
2023-04-22T13:30:36.246Z,12.05
2023-04-22T13:33:03.889Z,12.18
2023-04-22T13:35:31.389Z,12.40
2023-04-22T13:37:58.864Z,12.35
2023-04-22T13:40:27.422Z,12.13
2023-04-22T13:42:55.289Z,12.37
2023-04-22T13:45:22.675Z,13.02
2023-04-22T13:47:52.267Z,13.30
2023-04-22T13:50:19.703Z,12.20
2023-04-22T13:52:47.364Z,12.98
2023-04-22T13:55:15.166Z,12.60
2023-04-22T13:57:42.539Z,11.82
2023-04-22T14:00:10.212Z,12.70
2023-04-22T14:02:39.138Z,12.18
2023-04-22T14:05:07.479Z,12.82
2023-04-22T14:07:34.872Z,12.10
2023-04-22T14:10:02.202Z,13.93
2023-04-22T14:12:29.842Z,12.82
2023-04-22T14:14:57.257Z,12.40
2023-04-22T14:17:24.612Z,12.37
2023-04-22T14:19:52.330Z,11.38
2023-04-22T14:22:19.676Z,12.98
2023-04-22T14:24:48.673Z,12.23
2023-04-22T14:27:16.272Z,12.15
2023-04-22T14:29:43.922Z,12.35
2023-04-22T14:32:11.316Z,13.38
2023-04-22T14:34:39.470Z,12.35
2023-04-22T14:37:07.275Z,11.65
2023-04-22T14:39:34.675Z,12.05
2023-04-22T14:42:02.735Z,11.60
2023-04-22T14:44:30.247Z,12.15
2023-04-22T14:46:57.736Z,13.55
2023-04-22T14:49:25.347Z,12.45
2023-04-22T14:51:52.708Z,12.68
2023-04-22T14:54:20.062Z,12.32
2023-04-22T14:56:48.004Z,11.80
2023-04-22T14:59:15.377Z,13.30
2023-04-22T15:01:43.191Z,13.55
2023-04-22T15:04:13.612Z,12.13
2023-04-22T15:06:41.353Z,14.50
2023-04-22T15:09:08.735Z,10.98
2023-04-22T15:11:36.337Z,11.27
2023-04-22T15:14:03.707Z,20.10
2023-04-22T15:16:31.190Z,11.35
2023-04-22T15:18:58.910Z,12.35
2023-04-22T15:21:26.526Z,11.90
2023-04-22T15:23:53.887Z,11.90
2023-04-22T15:26:21.531Z,12.50
2023-04-22T15:28:50.935Z,13.45
2023-04-22T15:31:19.877Z,12.32
2023-04-22T15:33:47.664Z,12.43
2023-04-22T15:36:18.216Z,15.50
2023-04-22T15:38:45.610Z,13.70
2023-04-22T15:41:13.310Z,13.13
2023-04-22T15:43:40.674Z,12.88
2023-04-22T15:46:08.516Z,13.20
2023-04-22T15:48:36.197Z,13.55
2023-04-22T15:51:03.639Z,12.75
2023-04-22T15:53:31.008Z,12.80
2023-04-22T15:55:58.700Z,13.65
2023-04-22T15:58:26.040Z,14.65
2023-04-22T16:00:54.271Z,13.27
2023-04-22T16:03:22.924Z,13.70
2023-04-22T16:05:50.351Z,13.32
2023-04-22T16:08:17.703Z,13.95
2023-04-22T16:10:45.378Z,12.68
2023-04-22T16:13:12.727Z,12.68
2023-04-22T16:15:40.134Z,13.00
2023-04-22T16:18:08.050Z,12.98
2023-04-22T16:20:35.470Z,12.13
2023-04-22T16:23:02.798Z,11.98
2023-04-22T16:25:30.409Z,11.75
2023-04-22T16:27:57.752Z,12.25
2023-04-22T16:30:25.161Z,13.40
2023-04-22T16:32:52.804Z,12.20
2023-04-22T16:35:20.298Z,12.00
2023-04-22T16:37:47.731Z,12.57
2023-04-22T16:40:15.357Z,13.43
2023-04-22T16:42:42.718Z,11.98
2023-04-22T16:45:10.321Z,12.20
2023-04-22T16:47:38.243Z,13.15
2023-04-22T16:50:06.359Z,12.77
2023-04-22T16:52:33.744Z,12.37
2023-04-22T16:55:01.366Z,13.73
2023-04-22T16:57:29.072Z,12.55
2023-04-22T16:59:56.441Z,12.15
2023-04-22T17:02:24.139Z,11.98
2023-04-22T17:04:51.560Z,12.20
2023-04-22T17:07:19.056Z,12.32
2023-04-22T17:09:46.670Z,13.18
2023-04-22T17:12:14.047Z,13.00
2023-04-22T17:14:41.511Z,17.12
2023-04-22T17:17:09.156Z,15.30
2023-04-22T17:19:36.556Z,13.50
2023-04-22T17:22:04.116Z,13.40
2023-04-22T17:24:31.733Z,16.70
2023-04-22T17:26:59.092Z,14.10
2023-04-22T17:29:26.543Z,14.60
2023-04-22T17:31:54.199Z,14.15
2023-04-22T17:34:21.563Z,14.23
2023-04-22T17:36:48.943Z,15.10
2023-04-22T17:39:16.587Z,14.35
2023-04-22T17:41:44.088Z,15.40
2023-04-22T17:44:11.715Z,21.15
2023-04-22T17:46:41.190Z,13.15
2023-04-22T17:49:08.721Z,14.02
2023-04-22T17:51:36.076Z,16.83
2023-04-22T17:54:05.243Z,13.98
2023-04-22T17:56:32.604Z,20.20
2023-04-22T17:58:59.999Z,25.50
2023-04-22T18:01:29.605Z,18.45
2023-04-22T18:03:58.409Z,18.98
2023-04-22T18:06:25.867Z,17.98
2023-04-22T18:08:53.211Z,16.98
2023-04-22T18:11:20.912Z,15.10
2023-04-22T18:13:48.288Z,20.95
2023-04-22T18:16:15.667Z,21.85
2023-04-22T18:18:43.287Z,15.25
2023-04-22T18:21:10.663Z,19.17
2023-04-22T18:23:38.083Z,17.73
2023-04-22T18:26:09.790Z,15.57
2023-04-22T18:28:39.734Z,15.80
2023-04-22T18:31:07.996Z,25.67
2023-04-22T18:33:35.353Z,24.23
2023-04-22T18:36:02.708Z,15.02
2023-04-22T18:38:30.433Z,15.65
2023-04-22T18:40:57.752Z,16.35
2023-04-22T18:43:25.103Z,16.67
2023-04-22T18:45:52.736Z,19.17
2023-04-22T18:48:22.336Z,18.27
2023-04-22T18:50:50.381Z,17.92
2023-04-22T18:53:18.031Z,18.60
2023-04-22T18:55:45.374Z,17.48
2023-04-22T18:58:12.744Z,23.00
2023-04-22T19:00:40.789Z,15.25
2023-04-22T19:03:08.259Z,16.35
2023-04-22T19:05:35.818Z,30.80
2023-04-22T19:08:03.475Z,16.62
2023-04-22T19:10:30.829Z,20.55
2023-04-22T19:12:59.429Z,13.95
2023-04-22T19:15:27.138Z,22.40
2023-04-22T19:17:54.921Z,20.48
2023-04-22T19:20:22.373Z,23.08
2023-04-22T19:22:50.194Z,24.92
2023-04-22T19:25:18.921Z,21.25
2023-04-22T19:27:46.249Z,22.30
2023-04-22T19:30:14.854Z,17.30
2023-04-22T19:32:42.519Z,18.10
2023-04-22T19:35:12.576Z,17.15
2023-04-22T19:37:40.203Z,15.35
2023-04-22T19:40:08.291Z,13.15
2023-04-22T19:42:36.233Z,16.62
2023-04-22T19:45:04.413Z,15.18
2023-04-22T19:47:32.063Z,21.23
2023-04-22T19:49:59.607Z,16.75
2023-04-22T19:52:27.240Z,18.52
2023-04-22T19:54:58.710Z,14.65
2023-04-22T19:57:26.225Z,18.70
2023-04-22T19:59:54.284Z,14.30
2023-04-22T20:02:23.566Z,15.88
2023-04-22T20:04:51.390Z,16.12
2023-04-22T20:07:18.934Z,18.23
2023-04-22T20:09:46.600Z,16.42
2023-04-22T20:12:14.296Z,16.40
2023-04-22T20:14:41.785Z,16.85
2023-04-22T20:17:09.701Z,16.48
2023-04-22T20:19:37.508Z,18.25
2023-04-22T20:22:05.394Z,16.77
2023-04-22T20:24:32.751Z,18.30
2023-04-22T20:27:00.911Z,20.30
2023-04-22T20:29:29.969Z,18.12
2023-04-22T20:31:58.958Z,17.30
2023-04-22T20:34:26.796Z,17.85
2023-04-22T20:36:54.792Z,15.93
2023-04-22T20:39:22.460Z,19.73
2023-04-22T20:41:51.166Z,20.67
2023-04-22T20:44:18.900Z,16.58
2023-04-22T20:46:46.804Z,18.08
2023-04-22T20:49:14.667Z,23.10
2023-04-22T20:51:42.503Z,23.45
2023-04-22T20:54:17.736Z,17.37
2023-04-22T20:56:53.799Z,21.10
2023-04-22T20:59:21.171Z,18.80
2023-04-22T21:01:48.534Z,18.05
2023-04-22T21:04:16.278Z,18.25
2023-04-22T21:06:44.388Z,18.77
2023-04-22T21:09:11.859Z,17.90
2023-04-22T21:11:39.616Z,16.17
2023-04-22T21:14:07.189Z,15.73
2023-04-22T21:16:34.573Z,21.12
2023-04-22T21:19:02.217Z,18.90
2023-04-22T21:21:34.060Z,15.02
2023-04-22T21:24:02.048Z,16.98
2023-04-22T21:26:34.007Z,17.70
2023-04-22T21:29:01.762Z,13.82
2023-04-22T21:31:30.298Z,12.85
2023-04-22T21:33:57.648Z,15.00
2023-04-22T21:36:25.265Z,15.23
2023-04-22T21:38:52.640Z,13.18
2023-04-22T21:41:19.999Z,13.27
2023-04-22T21:43:47.631Z,19.60
2023-04-22T21:46:15.045Z,26.77
2023-04-22T21:48:42.453Z,25.52
2023-04-22T21:51:10.138Z,25.05
2023-04-22T21:53:37.516Z,27.87
2023-04-22T21:56:05.127Z,28.80
2023-04-22T21:58:32.770Z,20.58
2023-04-22T22:01:00.479Z,27.05
2023-04-22T22:03:28.248Z,20.00
2023-04-22T22:05:55.680Z,21.87
2023-04-22T22:08:23.078Z,20.73
2023-04-22T22:10:50.650Z,23.60
2023-04-22T22:13:18.073Z,21.40
2023-04-22T22:15:45.456Z,21.37
2023-04-22T22:18:13.079Z,19.65
2023-04-22T22:20:40.421Z,18.48
2023-04-22T22:23:07.771Z,17.30
2023-04-22T22:25:35.478Z,21.77
2023-04-22T22:28:02.832Z,19.35
2023-04-22T22:30:30.692Z,23.83
2023-04-22T22:32:58.388Z,27.35
2023-04-22T22:35:25.841Z,25.70
2023-04-22T22:37:53.183Z,35.10
2023-04-22T22:40:20.818Z,26.85
2023-04-22T22:42:48.172Z,32.42
2023-04-22T22:45:15.670Z,29.05
2023-04-22T22:47:43.332Z,23.27
2023-04-22T22:50:11.541Z,25.27
2023-04-22T22:52:39.015Z,24.63
2023-04-22T22:55:06.836Z,25.95
2023-04-22T22:57:34.191Z,24.92
2023-04-22T23:00:01.543Z,24.77
2023-04-22T23:02:29.459Z,28.30
2023-04-22T23:04:56.932Z,27.77
2023-04-22T23:07:24.296Z,25.08
2023-04-22T23:09:51.933Z,20.42
2023-04-22T23:12:19.276Z,23.33
2023-04-22T23:14:46.650Z,22.10
2023-04-22T23:17:14.296Z,23.95
2023-04-22T23:19:41.632Z,23.48
2023-04-22T23:22:09.318Z,26.25
2023-04-22T23:24:37.219Z,20.12
2023-04-22T23:27:04.890Z,23.95
2023-04-22T23:29:32.583Z,20.12
2023-04-22T23:32:01.144Z,20.67
2023-04-22T23:34:28.514Z,23.90
2023-04-22T23:36:56.077Z,20.60
2023-04-22T23:39:23.878Z,17.87
2023-04-22T23:41:51.242Z,18.92
2023-04-22T23:44:18.646Z,17.85
2023-04-22T23:46:47.293Z,17.30
2023-04-22T23:49:14.798Z,18.02
2023-04-22T23:51:42.774Z,24.35
2023-04-22T23:54:10.760Z,19.67
2023-04-22T23:56:38.379Z,22.62
2023-04-22T23:59:07.204Z,17.35
